Afton, Tennessee
Current Conditions -  °F | °C
As of 10:53 AM on Sunday 25 Jan 2015 (Local Time) from KTRI Reporting Station
Broken Clouds Broken Clouds  
Wind Chill:   Ceiling: 20000
Heat Index:   Visibility: 10mi
Dew Point:   Wind: 0mph
Humidity: 70%   Direction: NA
Pressure: 29.87"   Gusts: NA
Location:  36.19°N, 82.74°W
Report Text: KTRI 251553Z 00000KT 10SM BKN200 05/00 A2987 RMK AO2 SLP112 T00500000
Loading
Personal Weather Stations






























Interactive Weather Map New forecast layout! Learn more

10-Day Weather Forecast

Advertisements
Track Severe Weather on mobile